Time,TemperatureF,DewpointF,PressureIn,WindDirection,WindDirectionDegrees,WindSpeedMPH,WindSpeedGustMPH,Humidity,HourlyPrecipIn,Conditions,Clouds,dailyrainin,SoftwareType,DateUTC
2013-02-05 00:13:00,28.4,22.0,29.97,NNE,33,4.0,9.0,78,0.00,,,0.00,weatherlink.com 1.10,2013-02-05 07:13:00,
2013-02-05 00:28:00,29.0,23.0,29.97,NNE,33,0.0,5.0,78,0.00,,,0.00,weatherlink.com 1.10,2013-02-05 07:28:00,
2013-02-05 00:43:00,29.3,23.0,29.97,NNE,33,5.0,5.0,77,0.00,,,0.00,weatherlink.com 1.10,2013-02-05 07:43:00,
2013-02-05 00:58:00,29.1,23.0,29.97,NE,38,3.0,6.0,77,0.00,,,0.00,weatherlink.com 1.10,2013-02-05 07:58:00,
2013-02-05 01:13:00,28.2,22.0,29.97,NE,37,0.0,4.0,77,0.00,,,0.00,weatherlink.com 1.10,2013-02-05 08:13:00,
2013-02-05 01:28:00,27.3,21.0,29.98,NNE,18,5.0,8.0,78,0.00,,,0.00,weatherlink.com 1.10,2013-02-05 08:28:00,
2013-02-05 01:43:00,27.8,22.0,29.99,NNE,17,4.0,4.0,78,0.00,,,0.00,weatherlink.com 1.10,2013-02-05 08:43:00,
2013-02-05 01:58:00,26.6,21.0,29.99,NNE,18,0.0,1.0,79,0.00,,,0.00,weatherlink.com 1.10,2013-02-05 08:58:00,
2013-02-05 02:14:00,24.6,20.0,30.00,North,11,5.0,9.0,81,0.00,,,0.00,weatherlink.com 1.10,2013-02-05 09:14:00,
2013-02-05 02:28:00,24.9,20.0,29.99,North,11,5.0,6.0,81,0.00,,,0.00,weatherlink.com 1.10,2013-02-05 09:28:00,
2013-02-05 03:13:00,26.5,20.0,29.99,ESE,103,3.0,3.0,76,0.00,,,0.00,weatherlink.com 1.10,2013-02-05 10:13:00,
2013-02-05 03:29:00,24.4,19.0,29.99,ESE,103,2.0,3.0,79,0.00,,,0.00,weatherlink.com 1.10,2013-02-05 10:29:00,
2013-02-05 03:43:00,23.7,19.0,29.99,ESE,103,4.0,5.0,81,0.00,,,0.00,weatherlink.com 1.10,2013-02-05 10:43:00,
2013-02-05 03:58:00,24.0,19.0,29.99,ESE,103,3.0,5.0,82,0.00,,,0.00,weatherlink.com 1.10,2013-02-05 10:58:00,
2013-02-05 04:13:00,24.9,20.0,29.99,ESE,103,0.0,2.0,81,0.00,,,0.00,weatherlink.com 1.10,2013-02-05 11:13:00,
2013-02-05 04:28:00,24.2,19.0,29.98,ESE,103,0.0,8.0,82,0.00,,,0.00,weatherlink.com 1.10,2013-02-05 11:28:00,
2013-02-05 04:44:00,25.3,20.0,29.99,ESE,103,1.0,3.0,81,0.00,,,0.00,weatherlink.com 1.10,2013-02-05 11:44:00,
2013-02-05 04:59:00,25.4,20.0,29.99,ESE,103,0.0,3.0,81,0.00,,,0.00,weatherlink.com 1.10,2013-02-05 11:59:00,
2013-02-05 05:14:00,25.7,21.0,30.00,ESE,103,1.0,3.0,81,0.00,,,0.00,weatherlink.com 1.10,2013-02-05 12:14:00,
2013-02-05 05:29:00,25.5,20.0,29.99,ESE,103,0.0,3.0,81,0.00,,,0.00,weatherlink.com 1.10,2013-02-05 12:29:00,
2013-02-05 05:44:00,24.7,20.0,29.99,ESE,103,2.0,5.0,82,0.00,,,0.00,weatherlink.com 1.10,2013-02-05 12:44:00,
2013-02-05 05:59:00,24.6,20.0,29.99,ESE,103,4.0,7.0,83,0.00,,,0.00,weatherlink.com 1.10,2013-02-05 12:59:00,
2013-02-05 06:14:00,25.2,21.0,29.98,ESE,103,3.0,6.0,83,0.00,,,0.00,weatherlink.com 1.10,2013-02-05 13:14:00,
2013-02-05 06:29:00,25.2,20.0,29.98,ESE,103,4.0,4.0,82,0.00,,,0.00,weatherlink.com 1.10,2013-02-05 13:29:00,
2013-02-05 06:44:00,26.1,21.0,29.97,ESE,103,4.0,8.0,82,0.00,,,0.00,weatherlink.com 1.10,2013-02-05 13:44:00,
2013-02-05 06:59:00,26.3,21.0,29.98,ESE,103,0.0,2.0,81,0.00,,,0.00,weatherlink.com 1.10,2013-02-05 13:59:00,
2013-02-05 07:14:00,25.4,21.0,29.97,ESE,103,0.0,1.0,82,0.00,,,0.00,weatherlink.com 1.10,2013-02-05 14:14:00,
2013-02-05 07:29:00,25.2,21.0,29.97,ESE,103,0.0,9.0,83,0.00,,,0.00,weatherlink.com 1.10,2013-02-05 14:29:00,
2013-02-05 07:44:00,26.0,21.0,29.97,ESE,103,5.0,10.0,82,0.00,,,0.00,weatherlink.com 1.10,2013-02-05 14:44:00,
2013-02-05 07:59:00,25.9,21.0,29.98,ESE,103,1.0,10.0,82,0.00,,,0.00,weatherlink.com 1.10,2013-02-05 14:59:00,
2013-02-05 08:14:00,26.6,22.0,29.98,ESE,103,0.0,6.0,81,0.00,,,0.00,weatherlink.com 1.10,2013-02-05 15:14:00,
2013-02-05 08:29:00,28.0,23.0,29.97,SSE,164,0.0,8.0,80,0.00,,,0.00,weatherlink.com 1.10,2013-02-05 15:29:00,
2013-02-05 08:44:00,28.5,23.0,29.98,SSE,164,0.0,6.0,80,0.00,,,0.00,weatherlink.com 1.10,2013-02-05 15:44:00,
2013-02-05 08:59:00,29.0,24.0,29.97,SSE,164,0.0,3.0,80,0.00,,,0.00,weatherlink.com 1.10,2013-02-05 15:59:00,
2013-02-05 09:14:00,29.8,24.0,29.97,SSE,164,1.0,4.0,78,0.00,,,0.00,weatherlink.com 1.10,2013-02-05 16:14:00,
2013-02-05 09:29:00,30.2,24.0,29.96,SSE,164,3.0,5.0,76,0.00,,,0.00,weatherlink.com 1.10,2013-02-05 16:29:00,
2013-02-05 09:44:00,30.6,24.0,29.96,SSE,164,0.0,4.0,75,0.00,,,0.00,weatherlink.com 1.10,2013-02-05 16:44:00,
2013-02-05 09:59:00,31.5,24.0,29.96,SSE,164,2.0,3.0,73,0.00,,,0.00,weatherlink.com 1.10,2013-02-05 16:59:00,
2013-02-05 10:15:00,32.7,24.0,29.96,ENE,76,10.0,11.0,71,0.00,,,0.00,weatherlink.com 1.10,2013-02-05 17:15:00,
2013-02-05 10:30:00,31.7,24.0,29.97,ENE,57,4.0,7.0,73,0.00,,,0.00,weatherlink.com 1.10,2013-02-05 17:30:00,
2013-02-05 10:44:00,32.2,24.0,29.96,ENE,57,4.0,6.0,73,0.00,,,0.00,weatherlink.com 1.10,2013-02-05 17:44:00,
2013-02-05 10:59:00,34.4,25.0,29.96,ENE,57,3.0,6.0,69,0.00,,,0.00,weatherlink.com 1.10,2013-02-05 17:59:00,
2013-02-05 11:14:00,34.0,25.0,29.96,ENE,57,7.0,8.0,69,0.00,,,0.00,weatherlink.com 1.10,2013-02-05 18:14:00,
2013-02-05 11:29:00,34.2,25.0,29.95,ENE,57,2.0,5.0,69,0.00,,,0.00,weatherlink.com 1.10,2013-02-05 18:29:00,
2013-02-05 11:45:00,34.9,25.0,29.94,ENE,57,1.0,6.0,68,0.00,,,0.00,weatherlink.com 1.10,2013-02-05 18:45:00,
2013-02-05 11:59:00,35.6,26.0,29.93,ENE,57,0.0,1.0,67,0.00,,,0.00,weatherlink.com 1.10,2013-02-05 18:59:00,
2013-02-05 12:15:00,36.2,25.0,29.92,ENE,57,0.0,3.0,65,0.00,,,0.00,weatherlink.com 1.10,2013-02-05 19:15:00,
2013-02-05 12:30:00,38.0,26.0,29.91,ENE,57,3.0,5.0,62,0.00,,,0.00,weatherlink.com 1.10,2013-02-05 19:30:00,
2013-02-05 12:45:00,40.5,27.0,29.91,ENE,57,4.0,7.0,58,0.00,,,0.00,weatherlink.com 1.10,2013-02-05 19:45:00,
2013-02-05 13:00:00,41.1,26.0,29.90,NNE,28,10.0,13.0,56,0.00,,,0.00,weatherlink.com 1.10,2013-02-05 20:00:00,
2013-02-05 13:15:00,41.5,27.0,29.89,NE,35,10.0,11.0,56,0.00,,,0.00,weatherlink.com 1.10,2013-02-05 20:15:00,
2013-02-05 13:30:00,41.7,27.0,29.88,NE,34,9.0,13.0,57,0.00,,,0.00,weatherlink.com 1.10,2013-02-05 20:30:00,
2013-02-05 14:00:00,42.7,27.0,29.87,NE,44,9.0,12.0,55,0.00,,,0.00,weatherlink.com 1.10,2013-02-05 21:00:00,
2013-02-05 14:15:00,43.4,28.0,29.86,NNE,24,6.0,12.0,54,0.00,,,0.00,weatherlink.com 1.10,2013-02-05 21:15:00,
2013-02-05 14:30:00,42.7,27.0,29.85,NNE,32,9.0,15.0,54,0.00,,,0.00,weatherlink.com 1.10,2013-02-05 21:30:00,
2013-02-05 14:45:00,43.2,27.0,29.85,NNE,32,8.0,11.0,53,0.00,,,0.00,weatherlink.com 1.10,2013-02-05 21:45:00,
2013-02-05 15:00:00,43.2,26.0,29.85,NE,44,8.0,12.0,52,0.00,,,0.00,weatherlink.com 1.10,2013-02-05 22:00:00,
2013-02-05 15:15:00,43.2,26.0,29.85,NE,40,7.0,11.0,52,0.00,,,0.00,weatherlink.com 1.10,2013-02-05 22:15:00,
2013-02-05 15:30:00,43.4,27.0,29.85,NNE,17,10.0,15.0,52,0.00,,,0.00,weatherlink.com 1.10,2013-02-05 22:30:00,
2013-02-05 16:00:00,42.4,27.0,29.85,NE,44,6.0,11.0,55,0.00,,,0.00,weatherlink.com 1.10,2013-02-05 23:00:00,
2013-02-05 16:15:00,42.0,28.0,29.85,NNE,32,8.0,14.0,57,0.00,,,0.00,weatherlink.com 1.10,2013-02-05 23:15:00,
2013-02-05 16:30:00,40.8,27.0,29.86,NE,39,7.0,10.0,58,0.00,,,0.00,weatherlink.com 1.10,2013-02-05 23:30:00,
2013-02-05 16:45:00,39.5,27.0,29.85,NE,39,4.0,10.0,61,0.00,,,0.00,weatherlink.com 1.10,2013-02-05 23:45:00,
2013-02-05 17:00:00,38.5,27.0,29.86,NE,39,1.0,6.0,63,0.00,,,0.00,weatherlink.com 1.10,2013-02-06 00:00:00,
2013-02-05 17:15:00,37.4,26.0,29.86,NE,40,8.0,11.0,63,0.00,,,0.00,weatherlink.com 1.10,2013-02-06 00:15:00,
2013-02-05 17:30:00,37.0,26.0,29.86,NE,41,4.0,8.0,65,0.00,,,0.00,weatherlink.com 1.10,2013-02-06 00:30:00,
2013-02-05 17:45:00,35.6,26.0,29.86,NNW,331,6.0,10.0,67,0.00,,,0.00,weatherlink.com 1.10,2013-02-06 00:45:00,
2013-02-05 18:00:00,34.8,26.0,29.85,NNW,328,4.0,5.0,69,0.00,,,0.00,weatherlink.com 1.10,2013-02-06 01:00:00,
2013-02-05 18:15:00,36.1,25.0,29.85,WNW,302,3.0,7.0,65,0.00,,,0.00,weatherlink.com 1.10,2013-02-06 01:15:00,
2013-02-05 18:30:00,36.4,25.0,29.85,West,274,5.0,11.0,63,0.00,,,0.00,weatherlink.com 1.10,2013-02-06 01:30:00,
2013-02-05 18:45:00,42.3,24.0,29.85,WNW,292,7.0,12.0,49,0.00,,,0.00,weatherlink.com 1.10,2013-02-06 01:45:00,
2013-02-05 19:00:00,41.0,24.0,29.84,ESE,115,5.0,13.0,51,0.00,,,0.00,weatherlink.com 1.10,2013-02-06 02:00:00,
2013-02-05 19:15:00,35.0,24.0,29.85,NNW,340,4.0,12.0,65,0.00,,,0.00,weatherlink.com 1.10,2013-02-06 02:15:00,
2013-02-05 19:31:00,36.2,23.0,29.84,NNE,18,13.0,13.0,60,0.00,,,0.00,weatherlink.com 1.10,2013-02-06 02:31:00,
2013-02-05 19:45:00,36.7,24.0,29.84,North,5,8.0,15.0,60,0.00,,,0.00,weatherlink.com 1.10,2013-02-06 02:45:00,
2013-02-05 20:00:00,41.6,23.0,29.83,WNW,285,14.0,18.0,48,0.00,,,0.00,weatherlink.com 1.10,2013-02-06 03:00:00,
2013-02-05 20:15:00,34.0,23.0,29.83,East,95,9.0,15.0,64,0.00,,,0.00,weatherlink.com 1.10,2013-02-06 03:15:00,
2013-02-05 20:30:00,33.2,23.0,29.83,NE,46,6.0,9.0,66,0.00,,,0.00,weatherlink.com 1.10,2013-02-06 03:30:00,
2013-02-05 20:45:00,34.8,24.0,29.82,NE,42,12.0,15.0,64,0.00,,,0.00,weatherlink.com 1.10,2013-02-06 03:45:00,
2013-02-05 21:00:00,35.5,23.0,29.83,NNE,32,9.0,10.0,60,0.00,,,0.00,weatherlink.com 1.10,2013-02-06 04:00:00,
2013-02-05 21:16:00,36.3,22.0,29.83,ENE,67,5.0,9.0,57,0.00,,,0.00,weatherlink.com 1.10,2013-02-06 04:16:00,
2013-02-05 21:30:00,32.8,22.0,29.83,ENE,66,3.0,7.0,65,0.00,,,0.00,weatherlink.com 1.10,2013-02-06 04:30:00,
2013-02-05 21:46:00,46.9,19.0,29.82,WNW,283,11.0,26.0,33,0.00,,,0.00,weatherlink.com 1.10,2013-02-06 04:46:00,
2013-02-05 22:00:00,37.2,21.0,29.83,East,87,7.0,10.0,53,0.00,,,0.00,weatherlink.com 1.10,2013-02-06 05:00:00,
2013-02-05 22:15:00,34.2,21.0,29.84,East,88,5.0,7.0,60,0.00,,,0.00,weatherlink.com 1.10,2013-02-06 05:15:00,
2013-02-05 22:30:00,34.7,22.0,29.83,ESE,117,0.0,7.0,59,0.00,,,0.00,weatherlink.com 1.10,2013-02-06 05:30:00,
2013-02-05 22:45:00,43.9,19.0,29.83,West,269,10.0,14.0,37,0.00,,,0.00,weatherlink.com 1.10,2013-02-06 05:45:00,
2013-02-05 23:00:00,49.6,17.0,29.83,West,276,16.0,27.0,27,0.00,,,0.00,weatherlink.com 1.10,2013-02-06 06:00:00,
2013-02-05 23:15:00,48.9,17.0,29.83,West,263,11.0,18.0,28,0.00,,,0.00,weatherlink.com 1.10,2013-02-06 06:15:00,
2013-02-05 23:30:00,38.4,19.0,29.84,SW,234,11.0,12.0,46,0.00,,,0.00,weatherlink.com 1.10,2013-02-06 06:30:00,
2013-02-05 23:45:00,48.6,17.0,29.84,WSW,238,18.0,33.0,29,0.00,,,0.00,weatherlink.com 1.10,2013-02-06 06:45:00,